sensor_id;sensor_type;location;lat;lon;timestamp;pressure;altitude;pressure_sealevel;temperature;humidity
40838;BME280;29632;49.168;9.848;2023-07-22T00:02:06;96748.44;;;20.76;39.56
40838;BME280;29632;49.168;9.848;2023-07-22T00:04:31;96750.91;;;20.71;39.70
40838;BME280;29632;49.168;9.848;2023-07-22T00:06:57;96755.16;;;20.72;39.80
40838;BME280;29632;49.168;9.848;2023-07-22T00:09:22;96752.91;;;20.75;39.69
40838;BME280;29632;49.168;9.848;2023-07-22T00:11:49;96751.91;;;20.77;39.69
40838;BME280;29632;49.168;9.848;2023-07-22T00:14:15;96751.09;;;20.76;39.64
40838;BME280;29632;49.168;9.848;2023-07-22T00:16:41;96749.06;;;20.78;39.68
40838;BME280;29632;49.168;9.848;2023-07-22T00:19:07;96756.19;;;20.78;39.70
40838;BME280;29632;49.168;9.848;2023-07-22T00:21:33;96753.75;;;20.76;39.64
40838;BME280;29632;49.168;9.848;2023-07-22T00:24:00;96757.00;;;20.78;39.60
40838;BME280;29632;49.168;9.848;2023-07-22T00:26:26;96756.19;;;20.78;39.58
40838;BME280;29632;49.168;9.848;2023-07-22T00:28:52;96762.50;;;20.77;39.58
40838;BME280;29632;49.168;9.848;2023-07-22T00:31:18;96756.38;;;20.76;39.64
40838;BME280;29632;49.168;9.848;2023-07-22T00:33:43;96747.63;;;20.75;39.62
40838;BME280;29632;49.168;9.848;2023-07-22T00:36:09;96742.53;;;20.74;39.81
40838;BME280;29632;49.168;9.848;2023-07-22T00:38:35;96744.78;;;20.70;39.81
40838;BME280;29632;49.168;9.848;2023-07-22T00:41:00;96743.19;;;20.69;39.83
40838;BME280;29632;49.168;9.848;2023-07-22T00:43:30;96743.38;;;20.68;39.76
40838;BME280;29632;49.168;9.848;2023-07-22T00:45:56;96742.56;;;20.67;39.92
40838;BME280;29632;49.168;9.848;2023-07-22T00:48:21;96747.88;;;20.67;39.76
40838;BME280;29632;49.168;9.848;2023-07-22T00:50:47;96738.72;;;20.63;39.93
40838;BME280;29632;49.168;9.848;2023-07-22T00:53:16;96737.91;;;20.63;40.07
40838;BME280;29632;49.168;9.848;2023-07-22T00:55:43;96735.44;;;20.61;39.77
40838;BME280;29632;49.168;9.848;2023-07-22T00:58:10;96730.56;;;20.58;39.79
40838;BME280;29632;49.168;9.848;2023-07-22T01:00:36;96731.00;;;20.55;39.87
40838;BME280;29632;49.168;9.848;2023-07-22T01:03:02;96736.47;;;20.53;40.09
40838;BME280;29632;49.168;9.848;2023-07-22T01:05:28;96722.47;;;20.46;39.99
40838;BME280;29632;49.168;9.848;2023-07-22T01:07:55;96733.25;;;20.38;40.18
40838;BME280;29632;49.168;9.848;2023-07-22T01:10:22;96734.06;;;20.38;40.35
40838;BME280;29632;49.168;9.848;2023-07-22T01:12:47;96737.13;;;20.35;40.28
40838;BME280;29632;49.168;9.848;2023-07-22T01:15:13;96741.22;;;20.25;40.41
40838;BME280;29632;49.168;9.848;2023-07-22T01:17:39;96735.13;;;20.17;40.56
40838;BME280;29632;49.168;9.848;2023-07-22T01:20:06;96730.44;;;20.19;40.66
40838;BME280;29632;49.168;9.848;2023-07-22T01:22:32;96730.63;;;20.25;40.51
40838;BME280;29632;49.168;9.848;2023-07-22T01:24:58;96726.97;;;20.26;40.39
40838;BME280;29632;49.168;9.848;2023-07-22T01:27:24;96731.88;;;20.29;40.25
40838;BME280;29632;49.168;9.848;2023-07-22T01:29:50;96727.97;;;20.31;40.37
40838;BME280;29632;49.168;9.848;2023-07-22T01:32:17;96714.56;;;20.33;40.19
40838;BME280;29632;49.168;9.848;2023-07-22T01:34:43;96722.09;;;20.36;40.22
40838;BME280;29632;49.168;9.848;2023-07-22T01:37:08;96726.53;;;20.35;40.24
40838;BME280;29632;49.168;9.848;2023-07-22T01:39:35;96725.94;;;20.27;40.38
40838;BME280;29632;49.168;9.848;2023-07-22T01:42:01;96728.00;;;20.25;40.30
40838;BME280;29632;49.168;9.848;2023-07-22T01:44:27;96728.19;;;20.23;40.36
40838;BME280;29632;49.168;9.848;2023-07-22T01:46:52;96720.25;;;20.23;40.36
40838;BME280;29632;49.168;9.848;2023-07-22T01:49:18;96728.19;;;20.23;40.48
40838;BME280;29632;49.168;9.848;2023-07-22T01:51:43;96724.75;;;20.23;40.28
40838;BME280;29632;49.168;9.848;2023-07-22T01:54:09;96724.75;;;20.23;40.23
40838;BME280;29632;49.168;9.848;2023-07-22T01:56:36;96721.69;;;20.19;40.31
40838;BME280;29632;49.168;9.848;2023-07-22T01:59:01;96716.00;;;20.15;40.48
40838;BME280;29632;49.168;9.848;2023-07-22T02:01:27;96720.69;;;20.13;40.52
40838;BME280;29632;49.168;9.848;2023-07-22T02:03:54;96722.31;;;20.14;40.45
40838;BME280;29632;49.168;9.848;2023-07-22T02:06:20;96723.34;;;20.13;40.29
40838;BME280;29632;49.168;9.848;2023-07-22T02:08:45;96719.47;;;20.09;40.59
40838;BME280;29632;49.168;9.848;2023-07-22T02:11:11;96717.47;;;20.05;40.36
40838;BME280;29632;49.168;9.848;2023-07-22T02:13:37;96722.75;;;20.05;40.47
40838;BME280;29632;49.168;9.848;2023-07-22T02:16:03;96726.19;;;20.05;40.53
40838;BME280;29632;49.168;9.848;2023-07-22T02:18:29;96731.47;;;20.05;40.46
40838;BME280;29632;49.168;9.848;2023-07-22T02:20:55;96739.22;;;20.00;40.53
40838;BME280;29632;49.168;9.848;2023-07-22T02:23:21;96734.97;;;19.99;40.41
40838;BME280;29632;49.168;9.848;2023-07-22T02:25:51;96742.88;;;19.99;40.38
40838;BME280;29632;49.168;9.848;2023-07-22T02:28:18;96729.03;;;19.97;40.46
40838;BME280;29632;49.168;9.848;2023-07-22T02:30:48;96731.69;;;19.97;40.46
40838;BME280;29632;49.168;9.848;2023-07-22T02:33:13;96739.22;;;20.00;40.43
40838;BME280;29632;49.168;9.848;2023-07-22T02:35:40;96739.41;;;19.98;40.58
40838;BME280;29632;49.168;9.848;2023-07-22T02:38:07;96739.41;;;19.98;40.42
40838;BME280;29632;49.168;9.848;2023-07-22T02:40:36;96736.16;;;19.96;40.58
40838;BME280;29632;49.168;9.848;2023-07-22T02:43:02;96742.69;;;19.94;40.48
40838;BME280;29632;49.168;9.848;2023-07-22T02:45:29;96734.75;;;19.94;40.45
40838;BME280;29632;49.168;9.848;2023-07-22T02:47:54;96732.50;;;19.91;40.42
40838;BME280;29632;49.168;9.848;2023-07-22T02:50:20;96722.94;;;19.90;40.64
40838;BME280;29632;49.168;9.848;2023-07-22T02:52:46;96733.72;;;19.88;40.59
40838;BME280;29632;49.168;9.848;2023-07-22T02:55:15;96733.53;;;19.90;40.54
40838;BME280;29632;49.168;9.848;2023-07-22T02:57:44;96736.78;;;19.85;40.57
40838;BME280;29632;49.168;9.848;2023-07-22T03:00:12;96737.19;;;19.82;40.57
40838;BME280;29632;49.168;9.848;2023-07-22T03:02:38;96742.47;;;19.82;40.77
40838;BME280;29632;49.168;9.848;2023-07-22T03:05:05;96744.13;;;19.76;40.61
40838;BME280;29632;49.168;9.848;2023-07-22T03:07:37;96745.72;;;19.77;40.68
40838;BME280;29632;49.168;9.848;2023-07-22T03:10:03;96752.63;;;19.78;40.67
40838;BME280;29632;49.168;9.848;2023-07-22T03:12:29;96752.44;;;19.80;40.53
40838;BME280;29632;49.168;9.848;2023-07-22T03:14:55;96747.34;;;19.78;40.66
40838;BME280;29632;49.168;9.848;2023-07-22T03:17:20;96748.97;;;19.79;40.71
40838;BME280;29632;49.168;9.848;2023-07-22T03:19:46;96749.41;;;19.76;40.70
40838;BME280;29632;49.168;9.848;2023-07-22T03:22:15;96745.47;;;19.72;40.69
40838;BME280;29632;49.168;9.848;2023-07-22T03:24:45;96744.88;;;19.70;41.15
40838;BME280;29632;49.168;9.848;2023-07-22T03:27:11;96742.03;;;19.72;40.62
40838;BME280;29632;49.168;9.848;2023-07-22T03:29:38;96746.31;;;19.73;40.87
40838;BME280;29632;49.168;9.848;2023-07-22T03:32:04;96742.22;;;19.70;40.81
40838;BME280;29632;49.168;9.848;2023-07-22T03:34:30;96747.09;;;19.67;40.70
40838;BME280;29632;49.168;9.848;2023-07-22T03:36:56;96749.75;;;19.67;40.79
40838;BME280;29632;49.168;9.848;2023-07-22T03:39:22;96748.34;;;19.64;40.97
40838;BME280;29632;49.168;9.848;2023-07-22T03:41:48;96746.50;;;19.65;40.95
40838;BME280;29632;49.168;9.848;2023-07-22T03:44:13;96741.22;;;19.65;41.02
40838;BME280;29632;49.168;9.848;2023-07-22T03:46:39;96744.03;;;19.56;41.05
40838;BME280;29632;49.168;9.848;2023-07-22T03:49:05;96743.03;;;19.51;40.96
40838;BME280;29632;49.168;9.848;2023-07-22T03:51:31;96746.69;;;19.50;41.26
40838;BME280;29632;49.168;9.848;2023-07-22T03:53:57;96742.63;;;19.47;41.29
40838;BME280;29632;49.168;9.848;2023-07-22T03:56:22;96742.44;;;19.49;41.30
40838;BME280;29632;49.168;9.848;2023-07-22T03:58:50;96748.72;;;19.48;41.22
40838;BME280;29632;49.168;9.848;2023-07-22T04:01:15;96750.13;;;19.43;41.16
40838;BME280;29632;49.168;9.848;2023-07-22T04:03:41;96757.03;;;19.38;41.34
40838;BME280;29632;49.168;9.848;2023-07-22T04:06:07;96752.09;;;19.21;41.42
40838;BME280;29632;49.168;9.848;2023-07-22T04:08:33;96757.38;;;19.15;41.81
40838;BME280;29632;49.168;9.848;2023-07-22T04:10:58;96760.41;;;19.18;41.52
40838;BME280;29632;49.168;9.848;2023-07-22T04:13:25;96760.03;;;19.21;41.45
40838;BME280;29632;49.168;9.848;2023-07-22T04:15:51;96754.56;;;19.23;41.38
40838;BME280;29632;49.168;9.848;2023-07-22T04:18:17;96759.06;;;19.29;41.46
40838;BME280;29632;49.168;9.848;2023-07-22T04:20:43;96754.38;;;19.31;41.36
40838;BME280;29632;49.168;9.848;2023-07-22T04:23:09;96758.81;;;19.31;41.43
40838;BME280;29632;49.168;9.848;2023-07-22T04:25:53;96758.63;;;19.32;41.34
40838;BME280;29632;49.168;9.848;2023-07-22T04:28:19;96760.69;;;19.37;41.43
40838;BME280;29632;49.168;9.848;2023-07-22T04:30:54;96753.78;;;19.42;41.19
40838;BME280;29632;49.168;9.848;2023-07-22T04:33:20;96749.75;;;19.47;41.29
40838;BME280;29632;49.168;9.848;2023-07-22T04:35:46;96749.31;;;19.50;41.07
40838;BME280;29632;49.168;9.848;2023-07-22T04:38:11;96745.69;;;19.51;41.23
40838;BME280;29632;49.168;9.848;2023-07-22T04:40:37;96749.72;;;19.53;41.19
40838;BME280;29632;49.168;9.848;2023-07-22T04:43:03;96751.78;;;19.58;41.31
40838;BME280;29632;49.168;9.848;2023-07-22T04:45:28;96752.56;;;19.58;41.10
40838;BME280;29632;49.168;9.848;2023-07-22T04:47:54;96753.78;;;19.49;41.27
40838;BME280;29632;49.168;9.848;2023-07-22T04:50:20;96758.28;;;19.49;41.53
40838;BME280;29632;49.168;9.848;2023-07-22T04:52:46;96758.28;;;19.55;41.44
40838;BME280;29632;49.168;9.848;2023-07-22T04:55:12;96749.75;;;19.60;41.71
40838;BME280;29632;49.168;9.848;2023-07-22T04:57:39;96755.84;;;19.67;41.51
40838;BME280;29632;49.168;9.848;2023-07-22T05:00:07;96753.25;;;19.74;41.30
40838;BME280;29632;49.168;9.848;2023-07-22T05:02:35;96765.47;;;19.82;41.40
40838;BME280;29632;49.168;9.848;2023-07-22T05:05:00;96762.78;;;19.88;41.15
40838;BME280;29632;49.168;9.848;2023-07-22T05:07:26;96766.88;;;19.91;41.24
40838;BME280;29632;49.168;9.848;2023-07-22T05:09:52;96762.38;;;19.91;41.39
40838;BME280;29632;49.168;9.848;2023-07-22T05:12:18;96773.38;;;19.95;41.33
40838;BME280;29632;49.168;9.848;2023-07-22T05:14:45;96768.47;;;19.98;41.52
40838;BME280;29632;49.168;9.848;2023-07-22T05:17:11;96768.50;;;20.05;41.36
40838;BME280;29632;49.168;9.848;2023-07-22T05:19:37;96768.69;;;20.10;41.36
40838;BME280;29632;49.168;9.848;2023-07-22T05:22:02;96774.97;;;20.16;41.42
40838;BME280;29632;49.168;9.848;2023-07-22T05:24:28;96774.97;;;20.23;41.33
40838;BME280;29632;49.168;9.848;2023-07-22T05:26:54;96768.06;;;20.28;41.25
40838;BME280;29632;49.168;9.848;2023-07-22T05:29:19;96766.84;;;20.31;41.26
40838;BME280;29632;49.168;9.848;2023-07-22T05:31:45;96759.50;;;20.33;41.17
40838;BME280;29632;49.168;9.848;2023-07-22T05:34:12;96762.16;;;20.33;41.40
40838;BME280;29632;49.168;9.848;2023-07-22T05:36:38;96770.69;;;20.35;41.47
40838;BME280;29632;49.168;9.848;2023-07-22T05:39:03;96770.09;;;20.40;41.41
40838;BME280;29632;49.168;9.848;2023-07-22T05:41:29;96771.28;;;20.44;41.53
40838;BME280;29632;49.168;9.848;2023-07-22T05:43:55;96768.03;;;20.48;41.43
40838;BME280;29632;49.168;9.848;2023-07-22T05:46:21;96771.47;;;20.55;41.40
40838;BME280;29632;49.168;9.848;2023-07-22T05:48:46;96764.34;;;20.63;41.38
40838;BME280;29632;49.168;9.848;2023-07-22T05:51:12;96763.53;;;20.69;41.34
40838;BME280;29632;49.168;9.848;2023-07-22T05:53:38;96764.34;;;20.76;41.42
40838;BME280;29632;49.168;9.848;2023-07-22T05:56:05;96766.13;;;20.82;41.33
40838;BME280;29632;49.168;9.848;2023-07-22T05:58:30;96763.66;;;20.87;41.36
40838;BME280;29632;49.168;9.848;2023-07-22T06:00:56;96773.22;;;20.95;41.41
40838;BME280;29632;49.168;9.848;2023-07-22T06:03:22;96779.50;;;21.01;41.53
40838;BME280;29632;49.168;9.848;2023-07-22T06:05:47;96789.25;;;21.07;41.57
40838;BME280;29632;49.168;9.848;2023-07-22T06:08:13;96787.56;;;21.12;41.40
40838;BME280;29632;49.168;9.848;2023-07-22T06:10:40;96790.41;;;21.18;41.32
40838;BME280;29632;49.168;9.848;2023-07-22T06:13:06;96795.50;;;21.19;41.40
40838;BME280;29632;49.168;9.848;2023-07-22T06:15:32;96797.13;;;21.20;41.50
40838;BME280;29632;49.168;9.848;2023-07-22T06:17:59;96791.84;;;21.20;41.49
40838;BME280;29632;49.168;9.848;2023-07-22T06:20:25;96805.50;;;21.17;41.62
40838;BME280;29632;49.168;9.848;2023-07-22T06:22:50;96799.78;;;21.20;41.55
40838;BME280;29632;49.168;9.848;2023-07-22T06:25:16;96799.16;;;21.25;41.71
40838;BME280;29632;49.168;9.848;2023-07-22T06:27:42;96804.84;;;21.28;41.58
40838;BME280;29632;49.168;9.848;2023-07-22T06:30:07;96803.97;;;21.35;41.55
40838;BME280;29632;49.168;9.848;2023-07-22T06:32:34;96799.88;;;21.39;41.54
40838;BME280;29632;49.168;9.848;2023-07-22T06:34:59;96807.41;;;21.42;41.59
40838;BME280;29632;49.168;9.848;2023-07-22T06:37:25;96807.00;;;21.45;41.54
40838;BME280;29632;49.168;9.848;2023-07-22T06:39:51;96803.94;;;21.48;41.52
40838;BME280;29632;49.168;9.848;2023-07-22T06:42:17;96816.94;;;21.56;41.66
40838;BME280;29632;49.168;9.848;2023-07-22T06:44:43;96815.72;;;21.59;41.58
40838;BME280;29632;49.168;9.848;2023-07-22T06:47:09;96805.09;;;21.59;41.61
40838;BME280;29632;49.168;9.848;2023-07-22T06:49:34;96812.44;;;21.63;41.48
40838;BME280;29632;49.168;9.848;2023-07-22T06:52:00;96806.88;;;21.65;41.61
40838;BME280;29632;49.168;9.848;2023-07-22T06:54:27;96803.59;;;21.69;41.47
40838;BME280;29632;49.168;9.848;2023-07-22T06:56:53;96809.09;;;21.75;41.81
40838;BME280;29632;49.168;9.848;2023-07-22T06:59:18;96814.38;;;21.75;41.61
40838;BME280;29632;49.168;9.848;2023-07-22T07:01:44;96806.59;;;21.80;41.71
40838;BME280;29632;49.168;9.848;2023-07-22T07:04:10;96817.97;;;21.87;41.66
40838;BME280;29632;49.168;9.848;2023-07-22T07:06:36;96818.34;;;21.91;41.76
40838;BME280;29632;49.168;9.848;2023-07-22T07:09:01;96814.47;;;21.93;41.57
40838;BME280;29632;49.168;9.848;2023-07-22T07:11:28;96817.66;;;22.02;41.45
40838;BME280;29632;49.168;9.848;2023-07-22T07:13:54;96810.06;;;22.12;41.75
40838;BME280;29632;49.168;9.848;2023-07-22T07:16:24;96810.81;;;22.19;41.53
40838;BME280;29632;49.168;9.848;2023-07-22T07:18:50;96812.19;;;22.29;41.63
40838;BME280;29632;49.168;9.848;2023-07-22T07:21:17;96808.00;;;22.39;41.42
40838;BME280;29632;49.168;9.848;2023-07-22T07:23:43;96812.22;;;22.47;41.35
40838;BME280;29632;49.168;9.848;2023-07-22T07:26:08;96815.00;;;22.52;41.23
40838;BME280;29632;49.168;9.848;2023-07-22T07:28:34;96817.16;;;22.62;41.25
40838;BME280;29632;49.168;9.848;2023-07-22T07:31:00;96819.53;;;22.70;41.16
40838;BME280;29632;49.168;9.848;2023-07-22T07:33:25;96820.50;;;22.76;41.38
40838;BME280;29632;49.168;9.848;2023-07-22T07:35:51;96825.75;;;22.83;41.40
40838;BME280;29632;49.168;9.848;2023-07-22T07:38:16;96824.63;;;22.90;41.42
40838;BME280;29632;49.168;9.848;2023-07-22T07:40:42;96818.22;;;22.98;41.43
40838;BME280;29632;49.168;9.848;2023-07-22T07:43:08;96821.19;;;23.08;41.07
40838;BME280;29632;49.168;9.848;2023-07-22T07:45:38;96826.28;;;23.10;41.02
40838;BME280;29632;49.168;9.848;2023-07-22T07:48:05;96815.00;;;23.14;41.00
40838;BME280;29632;49.168;9.848;2023-07-22T07:50:32;96820.59;;;23.25;41.37
40838;BME280;29632;49.168;9.848;2023-07-22T07:52:57;96824.56;;;23.34;41.03
40838;BME280;29632;49.168;9.848;2023-07-22T07:55:23;96822.63;;;23.41;41.01
40838;BME280;29632;49.168;9.848;2023-07-22T07:57:48;96819.06;;;23.47;41.14
40838;BME280;29632;49.168;9.848;2023-07-22T08:00:14;96821.88;;;23.52;40.78
40838;BME280;29632;49.168;9.848;2023-07-22T08:02:40;96822.00;;;23.58;40.95
40838;BME280;29632;49.168;9.848;2023-07-22T08:05:06;96823.97;;;23.62;41.11
40838;BME280;29632;49.168;9.848;2023-07-22T08:07:32;96824.69;;;23.69;41.07
40838;BME280;29632;49.168;9.848;2023-07-22T08:09:57;96815.59;;;23.77;41.06
40838;BME280;29632;49.168;9.848;2023-07-22T08:12:24;96812.66;;;23.85;41.11
40838;BME280;29632;49.168;9.848;2023-07-22T08:14:52;96811.25;;;23.94;40.93
40838;BME280;29632;49.168;9.848;2023-07-22T08:17:18;96808.28;;;24.03;40.68
40838;BME280;29632;49.168;9.848;2023-07-22T08:19:44;96813.03;;;24.12;41.15
40838;BME280;29632;49.168;9.848;2023-07-22T08:22:09;96818.38;;;24.24;40.46
40838;BME280;29632;49.168;9.848;2023-07-22T08:24:35;96822.88;;;24.36;40.46
40838;BME280;29632;49.168;9.848;2023-07-22T08:27:01;96813.19;;;24.41;40.17
40838;BME280;29632;49.168;9.848;2023-07-22T08:29:26;96806.09;;;24.47;40.50
40838;BME280;29632;49.168;9.848;2023-07-22T08:31:52;96803.22;;;24.60;40.09
40838;BME280;29632;49.168;9.848;2023-07-22T08:34:17;96815.16;;;24.69;40.16
40838;BME280;29632;49.168;9.848;2023-07-22T08:36:43;96805.66;;;24.74;40.24
40838;BME280;29632;49.168;9.848;2023-07-22T08:39:09;96799.97;;;24.82;39.95
40838;BME280;29632;49.168;9.848;2023-07-22T08:41:36;96806.88;;;24.95;40.15
40838;BME280;29632;49.168;9.848;2023-07-22T08:44:02;96807.91;;;25.05;40.03
40838;BME280;29632;49.168;9.848;2023-07-22T08:46:29;96800.25;;;25.09;40.14
40838;BME280;29632;49.168;9.848;2023-07-22T08:48:59;96808.84;;;25.11;40.04
40838;BME280;29632;49.168;9.848;2023-07-22T08:51:26;96802.53;;;25.17;39.78
40838;BME280;29632;49.168;9.848;2023-07-22T08:53:58;96810.19;;;25.25;39.81
40838;BME280;29632;49.168;9.848;2023-07-22T08:56:24;96798.75;;;25.25;39.85
40838;BME280;29632;49.168;9.848;2023-07-22T08:58:53;96796.41;;;25.29;39.97
40838;BME280;29632;49.168;9.848;2023-07-22T09:01:20;96790.91;;;25.35;39.96
40838;BME280;29632;49.168;9.848;2023-07-22T09:03:45;96793.22;;;25.43;39.88
40838;BME280;29632;49.168;9.848;2023-07-22T09:06:12;96792.38;;;25.55;39.74
40838;BME280;29632;49.168;9.848;2023-07-22T09:08:38;96794.06;;;25.61;39.68
40838;BME280;29632;49.168;9.848;2023-07-22T09:11:04;96798.44;;;25.67;39.65
40838;BME280;29632;49.168;9.848;2023-07-22T09:13:30;96800.88;;;25.69;39.73
40838;BME280;29632;49.168;9.848;2023-07-22T09:15:57;96794.81;;;25.73;39.46
40838;BME280;29632;49.168;9.848;2023-07-22T09:18:24;96789.31;;;25.80;39.97
40838;BME280;29632;49.168;9.848;2023-07-22T09:20:50;96793.94;;;25.85;39.88
40838;BME280;29632;49.168;9.848;2023-07-22T09:23:16;96790.53;;;25.89;39.84
40838;BME280;29632;49.168;9.848;2023-07-22T09:25:42;96795.19;;;25.94;39.79
40838;BME280;29632;49.168;9.848;2023-07-22T09:28:08;96790.25;;;26.03;39.57
40838;BME280;29632;49.168;9.848;2023-07-22T09:30:38;96794.69;;;26.14;39.25
40838;BME280;29632;49.168;9.848;2023-07-22T09:33:07;96797.19;;;26.21;39.45
40838;BME280;29632;49.168;9.848;2023-07-22T09:35:46;96794.53;;;26.21;39.44
40838;BME280;29632;49.168;9.848;2023-07-22T09:38:12;96795.28;;;26.16;39.46
40838;BME280;29632;49.168;9.848;2023-07-22T09:40:40;96795.75;;;26.13;39.49
40838;BME280;29632;49.168;9.848;2023-07-22T09:43:09;96788.38;;;26.20;39.46
40838;BME280;29632;49.168;9.848;2023-07-22T09:45:35;96790.03;;;26.21;39.24
40838;BME280;29632;49.168;9.848;2023-07-22T09:48:00;96797.28;;;26.26;39.26
40838;BME280;29632;49.168;9.848;2023-07-22T09:50:26;96789.50;;;26.24;39.26
40838;BME280;29632;49.168;9.848;2023-07-22T09:52:55;96783.38;;;26.24;39.25
40838;BME280;29632;49.168;9.848;2023-07-22T09:55:22;96780.47;;;26.25;39.08
40838;BME280;29632;49.168;9.848;2023-07-22T09:58:14;96793.88;;;26.30;38.97
40838;BME280;29632;49.168;9.848;2023-07-22T10:00:40;96794.38;;;26.27;39.20
40838;BME280;29632;49.168;9.848;2023-07-22T10:03:10;96787.09;;;26.23;38.89
40838;BME280;29632;49.168;9.848;2023-07-22T10:05:38;96777.88;;;26.30;38.75
40838;BME280;29632;49.168;9.848;2023-07-22T10:08:06;96783.84;;;26.37;38.77
40838;BME280;29632;49.168;9.848;2023-07-22T10:10:34;96776.06;;;26.53;38.76
40838;BME280;29632;49.168;9.848;2023-07-22T10:13:00;96778.97;;;26.68;38.41
40838;BME280;29632;49.168;9.848;2023-07-22T10:15:33;96780.47;;;26.81;38.44
40838;BME280;29632;49.168;9.848;2023-07-22T10:18:00;96780.91;;;26.95;38.27
40838;BME280;29632;49.168;9.848;2023-07-22T10:20:26;96782.06;;;27.04;38.09
40838;BME280;29632;49.168;9.848;2023-07-22T10:22:51;96778.41;;;27.10;37.85
40838;BME280;29632;49.168;9.848;2023-07-22T10:25:19;96773.06;;;27.10;37.88
40838;BME280;29632;49.168;9.848;2023-07-22T10:27:49;96770.94;;;27.12;37.72
40838;BME280;29632;49.168;9.848;2023-07-22T10:30:16;96760.81;;;27.15;37.61
40838;BME280;29632;49.168;9.848;2023-07-22T10:32:47;96771.00;;;27.18;37.67
40838;BME280;29632;49.168;9.848;2023-07-22T10:37:56;96763.19;;;27.33;37.95
40838;BME280;29632;49.168;9.848;2023-07-22T10:40:25;96766.72;;;27.39;37.55
40838;BME280;29632;49.168;9.848;2023-07-22T10:45:32;96751.53;;;27.44;37.44
40838;BME280;29632;49.168;9.848;2023-07-22T10:48:04;96761.22;;;27.50;37.23
40838;BME280;29632;49.168;9.848;2023-07-22T10:51:10;96760.50;;;27.60;37.39
40838;BME280;29632;49.168;9.848;2023-07-22T10:53:43;96772.03;;;27.66;37.22
40838;BME280;29632;49.168;9.848;2023-07-22T11:06:32;96753.47;;;27.81;37.19
40838;BME280;29632;49.168;9.848;2023-07-22T11:08:57;96749.19;;;27.80;37.11
40838;BME280;29632;49.168;9.848;2023-07-22T11:11:44;96750.22;;;27.79;37.08
40838;BME280;29632;49.168;9.848;2023-07-22T11:14:14;96750.19;;;27.74;37.00
40838;BME280;29632;49.168;9.848;2023-07-22T11:16:42;96744.28;;;27.72;37.08
40838;BME280;29632;49.168;9.848;2023-07-22T11:19:07;96743.25;;;27.73;36.83
40838;BME280;29632;49.168;9.848;2023-07-22T11:21:33;96739.25;;;27.76;36.88
40838;BME280;29632;49.168;9.848;2023-07-22T11:23:58;96741.16;;;27.80;37.02
40838;BME280;29632;49.168;9.848;2023-07-22T11:26:24;96732.38;;;27.90;36.98
40838;BME280;29632;49.168;9.848;2023-07-22T11:28:50;96726.09;;;28.01;36.68
40838;BME280;29632;49.168;9.848;2023-07-22T11:31:18;96717.84;;;28.13;36.43
40838;BME280;29632;49.168;9.848;2023-07-22T11:33:45;96723.56;;;28.27;36.39
40838;BME280;29632;49.168;9.848;2023-07-22T11:36:12;96726.56;;;28.36;36.27
40838;BME280;29632;49.168;9.848;2023-07-22T11:38:39;96720.44;;;28.40;36.01
40838;BME280;29632;49.168;9.848;2023-07-22T11:41:05;96719.09;;;28.43;36.31
40838;BME280;29632;49.168;9.848;2023-07-22T11:43:31;96715.94;;;28.51;36.14
40838;BME280;29632;49.168;9.848;2023-07-22T11:45:57;96713.50;;;28.50;36.29
40838;BME280;29632;49.168;9.848;2023-07-22T11:48:23;96713.25;;;28.51;35.96
40838;BME280;29632;49.168;9.848;2023-07-22T11:50:48;96708.16;;;28.50;36.22
40838;BME280;29632;49.168;9.848;2023-07-22T11:53:14;96709.03;;;28.55;35.91
40838;BME280;29632;49.168;9.848;2023-07-22T11:55:40;96701.56;;;28.62;36.12
40838;BME280;29632;49.168;9.848;2023-07-22T11:58:06;96700.53;;;28.74;35.95
40838;BME280;29632;49.168;9.848;2023-07-22T12:00:33;96698.69;;;28.90;36.00
40838;BME280;29632;49.168;9.848;2023-07-22T12:03:05;96703.56;;;28.98;35.66
40838;BME280;29632;49.168;9.848;2023-07-22T12:05:31;96692.84;;;28.98;35.77
40838;BME280;29632;49.168;9.848;2023-07-22T12:08:00;96683.19;;;29.02;35.35
40838;BME280;29632;49.168;9.848;2023-07-22T12:10:26;96682.13;;;29.08;35.61
40838;BME280;29632;49.168;9.848;2023-07-22T12:12:51;96677.09;;;29.17;35.30
40838;BME280;29632;49.168;9.848;2023-07-22T12:15:20;96682.72;;;29.21;35.28
40838;BME280;29632;49.168;9.848;2023-07-22T12:17:56;96681.38;;;29.23;35.23
40838;BME280;29632;49.168;9.848;2023-07-22T12:20:27;96678.94;;;29.22;35.38
40838;BME280;29632;49.168;9.848;2023-07-22T12:22:54;96675.22;;;29.23;35.06
40838;BME280;29632;49.168;9.848;2023-07-22T12:25:20;96680.31;;;29.19;35.31
40838;BME280;29632;49.168;9.848;2023-07-22T12:27:45;96672.28;;;29.24;35.43
40838;BME280;29632;49.168;9.848;2023-07-22T12:30:11;96662.06;;;29.26;34.93
40838;BME280;29632;49.168;9.848;2023-07-22T12:32:38;96668.50;;;29.30;34.98
40838;BME280;29632;49.168;9.848;2023-07-22T12:35:04;96666.66;;;29.36;35.05
40838;BME280;29632;49.168;9.848;2023-07-22T12:37:30;96667.19;;;29.38;35.09
40838;BME280;29632;49.168;9.848;2023-07-22T12:39:56;96668.78;;;29.39;35.08
40838;BME280;29632;49.168;9.848;2023-07-22T12:42:22;96651.63;;;29.40;35.05
40838;BME280;29632;49.168;9.848;2023-07-22T12:44:47;96656.72;;;29.42;34.78
40838;BME280;29632;49.168;9.848;2023-07-22T12:47:13;96663.41;;;29.49;34.79
40838;BME280;29632;49.168;9.848;2023-07-22T12:49:39;96666.09;;;29.49;34.79
40838;BME280;29632;49.168;9.848;2023-07-22T12:52:04;96661.56;;;29.50;34.99
40838;BME280;29632;49.168;9.848;2023-07-22T12:54:37;96665.03;;;29.50;34.95
40838;BME280;29632;49.168;9.848;2023-07-22T12:57:03;96663.16;;;29.46;34.74
40838;BME280;29632;49.168;9.848;2023-07-22T12:59:29;96662.38;;;29.45;34.64
40838;BME280;29632;49.168;9.848;2023-07-22T13:01:55;96649.47;;;29.47;34.75
40838;BME280;29632;49.168;9.848;2023-07-22T13:04:23;96656.47;;;29.48;34.63
40838;BME280;29632;49.168;9.848;2023-07-22T13:06:50;96659.69;;;29.50;34.91
40838;BME280;29632;49.168;9.848;2023-07-22T13:09:17;96660.75;;;29.49;34.84
40838;BME280;29632;49.168;9.848;2023-07-22T13:11:43;96657.00;;;29.50;34.89
40838;BME280;29632;49.168;9.848;2023-07-22T13:14:09;96656.47;;;29.53;34.39